createdAt,value
2018-06-15T00:01:25.440Z,89.80
2018-06-15T00:03:55.564Z,90.10
2018-06-15T00:06:25.712Z,90.10
2018-06-15T00:08:55.605Z,89.90
2018-06-15T00:11:25.385Z,90.00
2018-06-15T00:13:55.459Z,90.00
2018-06-15T00:16:25.559Z,90.00
2018-06-15T00:18:55.652Z,89.70
2018-06-15T00:21:25.855Z,90.00
2018-06-15T00:23:56.151Z,90.30
2018-06-15T00:26:26.062Z,90.50
2018-06-15T00:28:55.900Z,90.70
2018-06-15T00:31:25.911Z,90.60
2018-06-15T00:33:56.111Z,90.60
2018-06-15T00:36:26.272Z,90.70
2018-06-15T00:38:56.261Z,91.00
2018-06-15T00:41:26.536Z,90.90
2018-06-15T00:43:56.516Z,90.90
2018-06-15T00:46:26.608Z,91.30
2018-06-15T00:48:56.812Z,91.30
2018-06-15T00:51:26.949Z,91.60
2018-06-15T00:53:57.106Z,91.70
2018-06-15T00:56:27.346Z,91.30
2018-06-15T00:58:57.839Z,91.00
2018-06-15T01:01:27.761Z,91.00
2018-06-15T01:03:57.862Z,90.90
2018-06-15T01:06:27.880Z,90.60
2018-06-15T01:08:57.869Z,90.50
2018-06-15T01:11:28.000Z,90.50
2018-06-15T01:13:58.076Z,90.50
2018-06-15T01:16:28.284Z,90.40
2018-06-15T01:18:58.556Z,90.20
2018-06-15T01:21:28.611Z,90.30
2018-06-15T01:23:58.874Z,90.30
2018-06-15T01:26:28.796Z,90.20
2018-06-15T01:28:58.954Z,90.50
2018-06-15T01:31:28.815Z,90.30
2018-06-15T01:33:59.351Z,90.30
2018-06-15T01:36:29.551Z,90.40
2018-06-15T01:38:59.529Z,90.20
2018-06-15T01:41:29.274Z,90.20
2018-06-15T01:43:59.473Z,90.30
2018-06-15T01:46:29.323Z,90.30
2018-06-15T01:48:59.276Z,90.30
2018-06-15T01:51:29.151Z,90.30
2018-06-15T01:53:59.288Z,90.30
2018-06-15T01:56:29.495Z,90.30
2018-06-15T01:58:59.492Z,90.20
2018-06-15T02:01:29.921Z,90.20
2018-06-15T02:04:00.617Z,90.30
2018-06-15T02:06:30.922Z,90.30
2018-06-15T02:11:32.589Z,90.60
2018-06-15T02:14:02.295Z,90.70
2018-06-15T02:20:22.295Z,90.70
2018-06-15T02:22:52.227Z,90.70
2018-06-15T02:25:21.986Z,90.80
2018-06-15T02:27:51.912Z,90.60
2018-06-15T02:30:22.007Z,90.80
2018-06-15T02:32:52.283Z,90.70
2018-06-15T02:35:22.422Z,90.50
2018-06-15T02:37:52.852Z,90.60
2018-06-15T02:40:22.844Z,90.30
2018-06-15T02:42:52.922Z,90.30
2018-06-15T02:45:22.987Z,90.40
2018-06-15T02:47:53.098Z,90.50
2018-06-15T02:50:23.123Z,90.60
2018-06-15T02:52:53.312Z,90.60
2018-06-15T02:55:23.500Z,90.50
2018-06-15T02:57:53.808Z,90.50
2018-06-15T03:00:24.638Z,90.60
2018-06-15T03:02:54.722Z,90.60
2018-06-15T03:05:25.082Z,90.70
2018-06-15T03:07:55.101Z,90.80
2018-06-15T03:10:25.168Z,90.60
2018-06-15T03:12:55.092Z,90.70
2018-06-15T03:15:25.046Z,90.60
2018-06-15T03:17:54.849Z,90.90
2018-06-15T03:20:24.970Z,90.70
2018-06-15T03:22:54.881Z,90.80
2018-06-15T03:25:24.730Z,90.50
2018-06-15T03:27:54.773Z,90.70
2018-06-15T03:30:24.911Z,90.70
2018-06-15T03:32:54.875Z,90.90
2018-06-15T03:35:25.157Z,90.60
2018-06-15T03:37:55.085Z,90.70
2018-06-15T03:40:25.549Z,90.90
2018-06-15T03:42:55.654Z,90.70
2018-06-15T03:45:25.572Z,90.40
2018-06-15T03:47:55.550Z,90.40
2018-06-15T03:50:25.401Z,90.30
2018-06-15T03:52:55.562Z,90.50
2018-06-15T03:55:25.615Z,90.70
2018-06-15T04:00:25.546Z,90.50
2018-06-15T04:02:55.953Z,90.50
2018-06-15T04:05:26.251Z,90.50
2018-06-15T04:07:56.258Z,90.60
2018-06-15T04:10:26.423Z,90.90
2018-06-15T04:12:56.482Z,90.80
2018-06-15T04:15:27.363Z,90.60
2018-06-15T04:18:02.868Z,90.60
2018-06-15T04:20:33.065Z,90.60
2018-06-15T04:23:03.378Z,90.40
2018-06-15T04:25:33.976Z,90.40
2018-06-15T04:28:04.272Z,90.40
2018-06-15T04:30:34.291Z,90.70
2018-06-15T04:33:04.417Z,90.50
2018-06-15T04:35:34.356Z,90.20
2018-06-15T04:38:04.306Z,89.80
2018-06-15T04:40:34.244Z,90.00
2018-06-15T04:43:03.944Z,89.90
2018-06-15T04:45:34.300Z,89.70
2018-06-15T04:48:05.003Z,90.00
2018-06-15T04:50:35.417Z,89.20
2018-06-15T04:53:06.044Z,90.00
2018-06-15T04:55:36.402Z,89.60
2018-06-15T04:58:07.081Z,89.70
2018-06-15T05:00:37.669Z,89.40
2018-06-15T05:03:07.889Z,89.20
2018-06-15T05:05:38.997Z,89.60
2018-06-15T05:08:08.879Z,89.50
2018-06-15T05:10:39.352Z,89.20
2018-06-15T05:13:10.147Z,89.20
2018-06-15T05:15:41.012Z,89.20
2018-06-15T05:18:11.023Z,89.30
2018-06-15T05:20:41.728Z,89.30
2018-06-15T05:23:11.875Z,89.60
2018-06-15T05:25:42.610Z,89.20
2018-06-15T05:28:13.368Z,88.20
2018-06-15T05:30:44.058Z,88.40
2018-06-15T05:33:14.171Z,88.40
2018-06-15T05:35:45.107Z,87.90
2018-06-15T05:38:15.162Z,88.10
2018-06-15T05:40:45.731Z,88.90
2018-06-15T05:43:15.901Z,88.40
2018-06-15T05:45:46.930Z,87.40
2018-06-15T05:48:17.188Z,87.10
2018-06-15T05:50:47.743Z,87.50
2018-06-15T05:53:18.561Z,87.30
2018-06-15T05:55:48.739Z,86.20
2018-06-15T05:58:19.066Z,85.60
2018-06-15T06:00:50.380Z,85.80
2018-06-15T06:03:20.628Z,85.60
2018-06-15T06:05:50.641Z,84.60
2018-06-15T06:08:21.687Z,83.70
2018-06-15T06:10:51.877Z,83.70
2018-06-15T06:13:22.705Z,83.20
2018-06-15T06:15:52.895Z,82.20
2018-06-15T06:18:23.178Z,82.00
2018-06-15T06:20:53.782Z,81.70
2018-06-15T06:23:24.204Z,82.60
2018-06-15T06:25:54.943Z,82.20
2018-06-15T06:28:25.236Z,81.50
2018-06-15T06:30:56.417Z,82.30
2018-06-15T06:33:26.671Z,83.50
2018-06-15T06:38:27.449Z,84.20
2018-06-15T06:40:58.668Z,83.70
2018-06-15T06:43:28.902Z,83.60
2018-06-15T06:45:59.594Z,83.50
2018-06-15T06:48:29.805Z,83.60
2018-06-15T06:51:00.374Z,83.50
2018-06-15T06:53:30.842Z,81.80
2018-06-15T06:56:01.482Z,82.30
2018-06-15T06:58:32.191Z,83.20
2018-06-15T07:01:02.743Z,83.60
2018-06-15T07:03:33.028Z,81.70
2018-06-15T07:06:03.313Z,78.90
2018-06-15T07:08:34.214Z,77.20
2018-06-15T07:11:04.466Z,78.20
2018-06-15T07:13:35.193Z,79.50
2018-06-15T07:16:05.923Z,79.80
2018-06-15T07:18:36.372Z,79.80
2018-06-15T07:21:06.685Z,77.70
2018-06-15T07:23:37.091Z,77.70
2018-06-15T07:26:07.815Z,78.60
2018-06-15T07:28:38.085Z,78.60
2018-06-15T07:31:08.580Z,78.30
2018-06-15T07:33:39.277Z,78.70
2018-06-15T07:36:10.227Z,78.90
2018-06-15T07:38:40.468Z,76.40
2018-06-15T07:41:11.015Z,77.10
2018-06-15T07:46:11.463Z,76.00
2018-06-15T07:48:42.442Z,76.40
2018-06-15T07:51:12.949Z,76.00
2018-06-15T07:53:43.812Z,75.90
2018-06-15T07:56:14.722Z,76.00
2018-06-15T07:58:44.877Z,76.20
2018-06-15T08:01:15.239Z,75.60
2018-06-15T08:03:50.592Z,75.00
2018-06-15T08:06:20.779Z,74.60
2018-06-15T08:08:50.677Z,72.80
2018-06-15T08:11:20.775Z,73.70
2018-06-15T08:13:50.777Z,74.20
2018-06-15T08:16:21.353Z,74.70
2018-06-15T08:18:51.464Z,75.90
2018-06-15T08:21:21.260Z,75.20
2018-06-15T08:23:51.229Z,73.50
2018-06-15T08:26:21.189Z,74.20
2018-06-15T08:28:51.248Z,74.50
2018-06-15T08:31:21.465Z,73.80
2018-06-15T08:33:51.987Z,74.10
2018-06-15T08:36:22.160Z,72.80
2018-06-15T08:38:52.831Z,67.80
2018-06-15T08:41:23.087Z,67.40
2018-06-15T08:43:53.789Z,69.10
2018-06-15T08:46:24.423Z,69.70
2018-06-15T08:48:54.988Z,69.00
2018-06-15T09:00:23.844Z,68.80
2018-06-15T09:02:54.153Z,67.60
2018-06-15T09:05:24.828Z,65.50
2018-06-15T09:07:55.266Z,65.70
2018-06-15T09:10:25.489Z,64.60
2018-06-15T09:12:56.443Z,66.10
2018-06-15T09:15:26.693Z,64.60
2018-06-15T09:17:57.616Z,61.60
2018-06-15T09:20:28.027Z,60.50
2018-06-15T09:22:58.257Z,61.00
2018-06-15T09:25:28.499Z,60.90
2018-06-15T09:27:58.564Z,60.90
2018-06-15T09:30:28.743Z,62.10
2018-06-15T09:32:58.888Z,61.40
2018-06-15T09:35:29.055Z,57.00
2018-06-15T09:37:59.127Z,56.20
2018-06-15T09:40:29.319Z,56.50
2018-06-15T09:42:59.429Z,56.80
2018-06-15T09:45:29.704Z,55.10
2018-06-15T09:47:59.883Z,55.20
2018-06-15T09:50:30.364Z,56.00
2018-06-15T09:53:00.332Z,57.50
2018-06-15T09:55:30.572Z,56.00
2018-06-15T09:58:00.736Z,56.30
2018-06-15T10:00:35.950Z,56.30
2018-06-15T10:03:06.078Z,54.30
2018-06-15T10:05:36.395Z,53.00
2018-06-15T10:08:06.482Z,52.10
2018-06-15T10:10:36.706Z,53.00
2018-06-15T10:13:06.909Z,54.00
2018-06-15T10:15:37.888Z,51.20
2018-06-15T10:18:08.245Z,50.10
2018-06-15T10:20:38.324Z,49.90
2018-06-15T10:23:08.489Z,52.10
2018-06-15T10:25:38.700Z,53.60
2018-06-15T10:28:09.159Z,52.70
2018-06-15T10:30:39.458Z,52.50
2018-06-15T10:33:10.032Z,52.30
2018-06-15T10:35:40.473Z,52.50
2018-06-15T10:38:10.868Z,52.90
2018-06-15T10:40:41.042Z,53.30
2018-06-15T10:43:11.347Z,49.90
2018-06-15T10:45:41.881Z,47.30
2018-06-15T10:48:13.158Z,48.40
2018-06-15T10:50:43.480Z,50.30
2018-06-15T10:53:13.835Z,50.30
2018-06-15T10:55:44.136Z,50.80
2018-06-15T10:58:14.398Z,50.60
2018-06-15T11:00:44.691Z,52.30
2018-06-15T11:03:14.872Z,51.80
2018-06-15T11:05:44.882Z,52.10
2018-06-15T11:08:15.963Z,52.50
2018-06-15T11:10:46.185Z,51.80
2018-06-15T11:13:16.336Z,50.80
2018-06-15T11:15:46.418Z,50.40
2018-06-15T11:18:16.789Z,50.10
2018-06-15T11:20:46.903Z,49.90
2018-06-15T11:23:17.299Z,48.30
2018-06-15T11:25:47.399Z,49.20
2018-06-15T11:28:17.565Z,49.00
2018-06-15T11:30:47.881Z,49.20
2018-06-15T11:33:18.033Z,46.70
2018-06-15T11:35:48.260Z,47.40
2018-06-15T11:38:18.406Z,46.90
2018-06-15T11:40:48.555Z,47.20
2018-06-15T11:43:18.772Z,47.60
2018-06-15T11:45:49.009Z,48.00
2018-06-15T11:48:19.202Z,47.30
2018-06-15T11:50:49.319Z,47.20
2018-06-15T11:53:19.490Z,47.80
2018-06-15T11:55:49.728Z,47.60
2018-06-15T11:58:19.811Z,48.30
2018-06-15T12:00:50.325Z,48.20
2018-06-15T12:03:20.473Z,48.20
2018-06-15T12:05:51.056Z,47.60
2018-06-15T12:08:21.770Z,48.30
2018-06-15T12:10:51.918Z,47.50
2018-06-15T12:13:22.239Z,45.00
2018-06-15T12:15:52.377Z,44.00
2018-06-15T12:18:22.608Z,45.20
2018-06-15T12:20:52.933Z,45.60
2018-06-15T12:23:23.032Z,46.20
2018-06-15T12:25:53.279Z,44.60
2018-06-15T12:28:23.643Z,44.10
2018-06-15T12:30:53.949Z,42.30
2018-06-15T12:33:24.208Z,42.00
2018-06-15T12:35:54.326Z,42.60
2018-06-15T12:38:25.003Z,43.30
2018-06-15T12:40:55.113Z,42.40
2018-06-15T12:43:25.303Z,41.80
2018-06-15T12:45:55.751Z,43.50
2018-06-15T12:48:25.915Z,43.60
2018-06-15T12:50:56.072Z,43.50
2018-06-15T12:53:26.418Z,43.20
2018-06-15T12:55:56.534Z,43.20
2018-06-15T12:58:26.675Z,42.20
2018-06-15T13:00:56.746Z,43.30
2018-06-15T13:03:26.785Z,43.40
2018-06-15T13:05:57.196Z,43.50
2018-06-15T13:08:27.302Z,43.00
2018-06-15T13:10:57.635Z,43.90
2018-06-15T13:13:27.694Z,43.90
2018-06-15T13:15:57.849Z,44.00
2018-06-15T13:18:28.236Z,42.90
2018-06-15T13:20:58.473Z,41.40
2018-06-15T13:23:28.494Z,41.70
2018-06-15T13:25:58.795Z,40.40
2018-06-15T13:28:28.930Z,40.90
2018-06-15T13:30:59.410Z,40.60
2018-06-15T13:33:29.608Z,41.40
2018-06-15T13:35:59.808Z,40.50
2018-06-15T13:38:29.969Z,40.80
2018-06-15T13:41:00.134Z,38.40
2018-06-15T13:43:30.189Z,38.60
2018-06-15T13:48:30.389Z,38.60
2018-06-15T13:51:00.659Z,38.20
2018-06-15T13:53:31.056Z,39.10
2018-06-15T13:56:01.534Z,39.30
2018-06-15T13:58:32.011Z,41.10
2018-06-15T14:01:02.471Z,41.10
2018-06-15T14:03:32.621Z,41.50
2018-06-15T14:06:03.018Z,40.80
2018-06-15T14:08:33.436Z,40.60
2018-06-15T14:11:03.556Z,39.80
2018-06-15T14:13:33.580Z,39.40
2018-06-15T14:16:03.787Z,39.50
2018-06-15T14:18:34.006Z,39.10
2018-06-15T14:21:04.259Z,37.70
2018-06-15T14:23:34.268Z,37.90
2018-06-15T14:26:04.380Z,37.90
2018-06-15T14:28:34.565Z,38.90
2018-06-15T14:31:04.751Z,37.70
2018-06-15T14:33:34.880Z,36.30
2018-06-15T14:36:05.066Z,37.60
2018-06-15T14:38:35.470Z,38.30
2018-06-15T14:41:06.001Z,37.40
2018-06-15T14:43:36.232Z,36.10
2018-06-15T14:46:06.870Z,36.20
2018-06-15T14:48:37.160Z,36.60
2018-06-15T14:51:07.269Z,35.40
2018-06-15T14:53:37.596Z,34.70
2018-06-15T14:56:07.905Z,34.80
2018-06-15T14:58:38.104Z,34.40
2018-06-15T15:01:08.181Z,34.90
2018-06-15T15:03:38.528Z,33.50
2018-06-15T15:06:08.621Z,32.70
2018-06-15T15:08:38.677Z,33.00
2018-06-15T15:13:39.065Z,33.30
2018-06-15T15:16:09.141Z,33.60
2018-06-15T15:18:39.326Z,33.70
2018-06-15T15:21:09.609Z,34.20
2018-06-15T15:23:39.871Z,34.70
2018-06-15T15:26:10.183Z,34.70
2018-06-15T15:28:40.321Z,34.00
2018-06-15T15:31:10.389Z,35.00
2018-06-15T15:33:40.656Z,36.00
2018-06-15T15:36:10.840Z,37.10
2018-06-15T15:38:41.181Z,37.30
2018-06-15T15:41:11.315Z,37.10
2018-06-15T15:43:41.329Z,38.90
2018-06-15T15:46:11.701Z,37.80
2018-06-15T15:48:41.823Z,37.40
2018-06-15T15:51:12.119Z,37.30
2018-06-15T15:53:42.201Z,35.30
2018-06-15T15:56:12.558Z,35.50
2018-06-15T15:58:42.655Z,35.50
2018-06-15T16:01:12.770Z,35.80
2018-06-15T16:03:43.125Z,34.90
2018-06-15T16:08:43.461Z,34.10
2018-06-15T16:11:13.636Z,33.50
2018-06-15T16:13:43.908Z,32.50
2018-06-15T16:16:14.033Z,32.10
2018-06-15T16:18:44.271Z,31.10
2018-06-15T16:21:14.504Z,31.10
2018-06-15T16:23:44.760Z,30.10
2018-06-15T16:26:14.781Z,29.20
2018-06-15T16:28:44.872Z,28.80
2018-06-15T16:31:15.238Z,28.70
2018-06-15T16:33:45.559Z,28.70
2018-06-15T16:36:15.769Z,28.30
2018-06-15T16:38:45.730Z,27.90
2018-06-15T16:43:46.253Z,27.50
2018-06-15T16:46:16.299Z,28.00
2018-06-15T16:48:46.640Z,28.50
2018-06-15T16:51:16.721Z,29.20
2018-06-15T16:53:47.011Z,29.80
2018-06-15T16:56:17.056Z,30.90
2018-06-15T16:58:47.284Z,32.10
2018-06-15T17:01:17.421Z,33.00
2018-06-15T17:03:47.716Z,31.80
2018-06-15T17:06:17.821Z,30.10
2018-06-15T17:08:48.258Z,29.70
2018-06-15T17:11:18.358Z,29.80
2018-06-15T17:13:48.477Z,29.20
2018-06-15T17:16:18.827Z,29.30
2018-06-15T17:18:48.791Z,29.60
2018-06-15T17:21:19.170Z,30.90
2018-06-15T17:23:49.316Z,32.50
2018-06-15T17:26:19.324Z,35.30
2018-06-15T17:28:49.450Z,34.80
2018-06-15T17:31:19.799Z,36.00
2018-06-15T17:33:49.936Z,36.40
2018-06-15T17:36:20.211Z,35.90
2018-06-15T17:38:50.252Z,36.30
2018-06-15T17:41:20.254Z,37.70
2018-06-15T17:43:50.204Z,38.30
2018-06-15T17:46:20.556Z,38.80
2018-06-15T17:48:51.017Z,39.60
2018-06-15T17:51:21.491Z,40.50
2018-06-15T17:53:51.579Z,41.20
2018-06-15T17:56:21.897Z,40.90
2018-06-15T17:58:52.059Z,41.70
2018-06-15T18:01:22.308Z,40.90
2018-06-15T18:03:52.404Z,41.40
2018-06-15T18:06:22.576Z,40.30
2018-06-15T18:08:53.017Z,40.30
2018-06-15T18:13:53.231Z,40.70
2018-06-15T18:16:23.554Z,41.30
2018-06-15T18:18:53.941Z,41.50
2018-06-15T18:21:24.082Z,42.00
2018-06-15T18:23:54.369Z,43.20
2018-06-15T18:26:24.733Z,42.80
2018-06-15T18:28:54.811Z,43.10
2018-06-15T18:31:25.247Z,44.60
2018-06-15T18:33:57.240Z,45.80
2018-06-15T18:36:27.445Z,43.70
2018-06-15T18:41:27.786Z,43.70
2018-06-15T18:43:58.549Z,44.70
2018-06-15T18:46:28.549Z,45.50
2018-06-15T18:48:58.935Z,46.90
2018-06-15T18:51:29.105Z,47.50
2018-06-15T18:53:59.518Z,48.10
2018-06-15T18:56:29.700Z,48.40
2018-06-15T18:59:00.081Z,49.40
2018-06-15T19:01:30.451Z,48.90
2018-06-15T19:04:00.846Z,48.90
2018-06-15T19:06:31.181Z,48.80
2018-06-15T19:09:01.356Z,49.70
2018-06-15T19:11:31.604Z,50.60
2018-06-15T19:14:01.741Z,51.00
2018-06-15T19:16:32.033Z,52.10
2018-06-15T19:19:02.153Z,52.90
2018-06-15T19:21:32.311Z,52.50
2018-06-15T19:24:02.700Z,53.00
2018-06-15T19:26:33.078Z,53.40
2018-06-15T19:29:03.228Z,53.10
2018-06-15T19:31:33.236Z,52.70
2018-06-15T19:34:03.359Z,53.50
2018-06-15T19:36:33.510Z,53.50
2018-06-15T19:39:04.631Z,54.10
2018-06-15T19:41:34.694Z,54.70
2018-06-15T19:44:05.013Z,52.60
2018-06-15T19:46:35.669Z,52.90
2018-06-15T19:49:05.831Z,54.40
2018-06-15T19:51:36.140Z,56.00
2018-06-15T19:54:07.287Z,55.90
2018-06-15T19:56:37.996Z,56.00
2018-06-15T19:59:08.264Z,56.10
2018-06-15T20:01:38.818Z,56.40
2018-06-15T20:04:09.414Z,56.50
2018-06-15T20:06:39.737Z,57.00
2018-06-15T20:09:10.111Z,57.40
2018-06-15T20:11:40.151Z,57.30
2018-06-15T20:14:10.395Z,56.80
2018-06-15T20:16:40.753Z,57.50
2018-06-15T20:19:10.767Z,57.80
2018-06-15T20:21:40.896Z,55.90
2018-06-15T20:24:11.247Z,56.00
2018-06-15T20:26:41.575Z,58.30
2018-06-15T20:29:12.415Z,57.10
2018-06-15T20:31:42.766Z,57.30
2018-06-15T20:34:13.271Z,57.50
2018-06-15T20:36:43.540Z,58.30
2018-06-15T20:39:13.899Z,57.60
2018-06-15T20:41:44.374Z,57.70
2018-06-15T20:44:14.820Z,57.80
2018-06-15T20:46:45.348Z,57.90
2018-06-15T20:49:16.076Z,58.20
2018-06-15T20:51:46.393Z,58.30
2018-06-15T20:54:17.409Z,58.70
2018-06-15T20:56:47.601Z,59.00
2018-06-15T20:59:18.009Z,59.10
2018-06-15T21:01:48.946Z,59.40
2018-06-15T21:04:19.073Z,59.50
2018-06-15T21:06:49.462Z,59.70
2018-06-15T21:09:20.415Z,60.10
2018-06-15T21:14:20.911Z,60.40
2018-06-15T21:16:51.970Z,60.80
2018-06-15T21:19:22.105Z,60.60
2018-06-15T21:21:52.677Z,61.10
2018-06-15T21:24:23.218Z,61.40
2018-06-15T21:26:53.856Z,61.10
2018-06-15T21:29:24.173Z,61.10
2018-06-15T21:34:25.577Z,61.70
2018-06-15T21:36:55.792Z,61.80
2018-06-15T21:39:26.835Z,61.90
2018-06-15T21:41:56.900Z,62.20
2018-06-15T21:44:27.305Z,62.50
2018-06-15T21:46:57.745Z,62.40
2018-06-15T21:49:28.455Z,62.00
2018-06-15T21:51:58.670Z,62.00
2018-06-15T21:54:29.470Z,61.90
2018-06-15T21:56:59.682Z,61.70
2018-06-15T21:59:30.321Z,61.90
2018-06-15T22:02:01.013Z,62.10
2018-06-15T22:04:31.547Z,63.10
2018-06-15T22:07:02.062Z,63.10
2018-06-15T22:09:32.693Z,63.60
2018-06-15T22:12:03.125Z,64.10
2018-06-15T22:14:33.346Z,64.10
2018-06-15T22:17:03.565Z,64.10
2018-06-15T22:19:34.528Z,64.30
2018-06-15T22:22:04.837Z,64.30
2018-06-15T22:24:35.224Z,64.40
2018-06-15T22:29:36.404Z,64.20
2018-06-15T22:32:06.858Z,63.90
2018-06-15T22:34:37.702Z,65.10
2018-06-15T22:37:07.976Z,65.90
2018-06-15T22:39:38.353Z,67.10
2018-06-15T22:42:08.915Z,66.80
2018-06-15T22:44:39.614Z,66.30
2018-06-15T22:47:10.216Z,66.60
2018-06-15T22:49:40.784Z,65.60
2018-06-15T22:52:11.117Z,65.60
2018-06-15T22:54:41.413Z,65.30
2018-06-15T22:57:12.441Z,65.30
2018-06-15T22:59:42.525Z,65.60
2018-06-15T23:02:12.930Z,65.00
2018-06-15T23:04:43.977Z,64.40
2018-06-15T23:07:14.555Z,64.20
2018-06-15T23:09:44.650Z,64.30
2018-06-15T23:12:14.861Z,62.90
2018-06-15T23:14:45.819Z,62.40
2018-06-15T23:17:16.622Z,62.80
2018-06-15T23:19:47.148Z,63.00
2018-06-15T23:22:17.038Z,62.80
2018-06-15T23:24:47.652Z,62.90
2018-06-15T23:27:18.394Z,63.60
2018-06-15T23:29:48.637Z,64.30
2018-06-15T23:32:19.428Z,64.30
2018-06-15T23:34:49.512Z,64.40
2018-06-15T23:37:20.043Z,63.80
2018-06-15T23:39:50.691Z,63.70
2018-06-15T23:42:20.962Z,63.60
2018-06-15T23:44:52.049Z,63.90
2018-06-15T23:47:22.223Z,63.80
2018-06-15T23:49:53.097Z,63.70
2018-06-15T23:52:23.496Z,63.40
2018-06-15T23:57:23.992Z,64.00
2018-06-15T23:59:54.770Z,63.70
